Corning, Iowa
Current Conditions -  °F | °C
As of 4:15 PM on Monday 26 Jan 2015 (Local Time) from KCSQ Reporting Station
Clear Clear  
Wind Chill: 11°   Ceiling: Unl
Heat Index: 11°   Visibility: 10mi
Dew Point:   Wind: 20mph
Humidity: 58%   Direction: 310°NW
Pressure: 29.9"   Gusts: NA
Location:  40.99°N, 94.74°W
Report Text: KCSQ 262215Z AUTO 31017KT 10SM CLR 11/03 A2990 RMK AO2
Loading
Personal Weather Stations






























Interactive Weather Map New forecast layout! Learn more

10-Day Weather Forecast

Advertisements
Track Severe Weather on mobile